Flight Track Log - Related Links

Times and Time Zones

All times are in EDT time to prevent confusion due to time zone crossing. See the ASQ6137 flight status page for this flight to view local times or setup timezone preferences in your user account.

Time Position Orientation Groundspeed Altitude Reporting Facility
EDT Latitude Longitude Course Direction KTS MPH feet Rate Location/Type
Thu 11:01:30 AM 42.0000 -87.9500 37° Northeast 173 199 1,600  Level Chicago TRACON
Thu 11:02:30 AM 42.0500 -87.9000 37° Northeast 222 255 3,600 1,891 Climbing Chicago TRACON
Thu 11:04:15 AM 42.0783 -87.7483 76° East 266 306 6,800 1,904 Climbing Chicago Center
Thu 11:05:17 AM 42.0839 -87.6428 86° East 278 320 8,900 1,790 Climbing Chicago Center
Thu 11:06:19 AM 42.0894 -87.5339 86° East 287 330 10,500 1,306 Climbing Chicago Center
Thu 11:07:21 AM 42.0956 -87.4122 86° East 314 361 11,600 1,016 Climbing Chicago Center
Thu 11:08:23 AM 42.1011 -87.2792 87° East 343 395 12,600 976 Climbing Chicago Center
Thu 11:09:24 AM 42.1089 -87.1392 86° East 367 422 13,600 1,073 Climbing Chicago Center
Thu 11:10:26 AM 42.1153 -86.9661 87° East 383 441 14,800 1,210 Climbing Chicago Center
Thu 11:11:28 AM 42.1194 -86.8200 88° East 389 448 16,100 1,258 Climbing Chicago Center
Thu 11:12:30 AM 42.1261 -86.6728 86° East 385 443 17,400 1,220 Climbing Chicago Center
Thu 11:13:31 AM 42.1314 -86.5267 87° East 389 448 18,600 1,220 Climbing Chicago Center
Thu 11:14:33 AM 42.1361 -86.3819 87° East 389 448 19,900 1,210 Climbing Chicago Center
Thu 11:15:35 AM 42.1400 -86.2369 88° East 389 448 21,100 1,220 Climbing Chicago Center
Thu 11:16:36 AM 42.1456 -86.0875 87° East 396 456 22,400 1,317 Climbing Chicago Center
Thu 11:17:38 AM 42.1594 -85.9222 83° East 397 457 23,800 1,306 Climbing Chicago Center
Thu 11:18:40 AM 42.1708 -85.7731 84° East 400 460 25,100 1,258 Climbing Chicago Center
Thu 11:19:42 AM 42.1825 -85.6258 84° East 400 460 26,400 1,113 Climbing Chicago Center
Thu 11:20:44 AM 42.1944 -85.4781 84° East 400 460 27,400 968 Climbing Chicago Center
Thu 11:21:46 AM 42.2089 -85.3047 84° East 392 451 28,400 984 Climbing Cleveland Center
Thu 11:22:46 AM 42.2192 -85.1539 85° East 397 457 29,400 1,000 Climbing Cleveland Center
Thu 11:23:46 AM 42.2314 -85.0006 84° East 402 463 30,400 1,000 Climbing Cleveland Center
Thu 11:24:46 AM 42.2436 -84.8469 84° East 408 470 31,400 1,000 Climbing Cleveland Center
Thu 11:25:46 AM 42.2533 -84.6906 85° East 408 470 32,400 800 Climbing Cleveland Center
Thu 11:26:46 AM 42.2631 -84.5339 85° East 408 470 33,000 300 Climbing Cleveland Center
Thu 11:27:46 AM 42.2747 -84.3692 84° East 422 486 33,000  Level Cleveland Center
Thu 11:28:46 AM 42.2867 -84.1928 85° East 445 512 33,000  Level Cleveland Center
Thu 11:29:46 AM 42.2964 -84.0136 86° East 465 535 33,000  Level Cleveland Center
Thu 11:30:46 AM 42.3078 -83.8375 85° East 471 542 33,000  Level Cleveland Center
Thu 11:31:46 AM 42.3167 -83.6639 86° East 471 542 33,000  Level Cleveland Center
Thu 11:32:46 AM 42.3233 -83.4900 87° East 465 535 33,000  Level Cleveland Center
Thu 11:33:46 AM 42.3336 -83.3331 85° East 460 529 33,000  Level Cleveland Center
Thu 11:34:46 AM 42.3439 -83.1592 85° East 460 529 33,000  Level Cleveland Center
Thu 11:35:46 AM 42.3539 -82.9856 85° East 460 529 33,000  Level Cleveland Center
Thu 11:36:46 AM 42.3614 -82.8114 87° East 460 529 33,000  Level Cleveland Center
Thu 11:37:46 AM 42.3689 -82.6347 87° East 452 520 33,000  Level Cleveland Center
Thu 11:38:46 AM 42.3783 -82.4467 86° East 462 532 33,000  Level Cleveland Center
Thu 11:39:46 AM 42.3872 -82.2728 86° East 456 525 33,000  Level Cleveland Center
Thu 11:40:46 AM 42.3961 -82.0958 86° East 456 525 33,000  Level Cleveland Center
Thu 11:41:46 AM 42.4044 -81.9244 86° East 456 525 33,000  Level Cleveland Center
Thu 11:42:46 AM 42.4125 -81.7503 86° East 455 524 33,000 -250 Level Cleveland Center
Thu 11:43:46 AM 42.4206 -81.5817 86° East 455 524 32,500 -850 Descending Cleveland Center
Thu 11:44:46 AM 42.4258 -81.4131 88° East 455 524 31,300 -1,750 Descending Cleveland Center
Thu 11:45:46 AM 42.4333 -81.2442 87° East 444 511 29,000 -2,100 Descending Cleveland Center
Thu 11:46:46 AM 42.4383 -81.0897 87° East 444 511 27,100 -1,000 Descending Cleveland Center
Thu 11:47:46 AM 42.4450 -80.9181 87° East 452 520 27,000 -50 Descending Cleveland Center
Thu 11:48:46 AM 42.4517 -80.7408 87° East 458 527 27,000  Level Cleveland Center
Thu 11:49:46 AM 42.4561 -80.5606 88° East 466 536 27,000 -450 Level Cleveland Center
Thu 11:50:46 AM 42.4600 -80.3861 88° East 462 532 26,100 -950 Descending Cleveland Center
Thu 11:51:46 AM 42.4678 -80.1919 87° East 468 539 25,100 -550 Descending Cleveland Center
Thu 11:52:46 AM 42.4733 -80.0203 87° East 463 533 25,000 -50 Descending Cleveland Center
Thu 11:53:46 AM 42.4831 -79.8653 85° East 458 527 25,000 -150 Level Cleveland Center
Thu 11:54:46 AM 42.4839 -79.6964 90° East 458 527 24,700 -850 Descending Cleveland Center
Thu 11:55:46 AM 42.4886 -79.5244 88° East 458 527 23,300 -1,400 Descending Cleveland Center
Thu 11:56:46 AM 42.4914 -79.3667 89° East 444 511 21,900 -1,100 Descending Cleveland Center
Thu 11:57:46 AM 42.5314 -79.2222 69° East 408 470 21,100 -1,350 Descending Cleveland Center
Thu 11:58:46 AM 42.6050 -79.1136 47° Northeast 387 445 19,200 -1,900 Descending Cleveland Center
Thu 11:59:46 AM 42.6828 -79.0044 46° Northeast 387 445 17,300 -2,050 Descending Cleveland Center
Thu 12:00:46 PM 42.7544 -78.9008 47° Northeast 381 438 15,100 -2,200 Descending Cleveland Center
Thu 12:01:46 PM 42.8236 -78.7997 47° Northeast 368 423 12,900 -1,850 Descending Cleveland Center
Thu 12:02:46 PM 42.8950 -78.6986 46° Northeast 362 417 11,400 -1,367 Descending Cleveland Center
Thu 12:03:05 PM 42.9167 -78.6500 59° Northeast 353 406 11,100 -400 Descending Buffalo TRACON
Thu 12:03:46 PM 42.9411 -78.5839 63° Northeast 357 411 11,000 -59 Descending Cleveland Center
Thu 12:04:46 PM 42.9678 -78.4497 75° East 342 394 11,000 -140 Level Cleveland Center
Thu 12:05:12 PM 42.9811 -78.3811 75° East 375 432 10,800 -737 Descending Cleveland Center
Thu 12:05:43 PM 42.9967 -78.3153 72° East 340 391 10,300 -857 Descending Cleveland Center
Thu 12:06:43 PM 43.0172 -78.2064 75° East 281 323 9,500 -893 Descending Cleveland Center
Thu 12:07:44 PM 43.0358 -78.1036 76° East 281 323 8,500 -934 Descending Cleveland Center
Thu 12:08:45 PM 43.0736 -78.0167 59° Northeast 273 314 7,600 -942 Descending Cleveland Center
Thu 12:09:45 PM 43.1306 -77.9489 41° Northeast 262 302 6,600 -992 Descending Cleveland Center
Thu 12:10:46 PM 43.1853 -77.8869 40° Northeast 257 296 5,600 -992 Descending Cleveland Center
Thu 12:11:46 PM 43.2400 -77.8189 42° Northeast 268 308 4,600 -1,339 Descending Cleveland Center
Thu 12:12:47 PM 43.2906 -77.7481 46° Northeast 262 302 2,900 -1,033 Descending Cleveland Center
Thu 12:13:48 PM 43.3047 -77.6533 78° East 250 288 2,500 -198 Descending Cleveland Center
Thu 12:14:48 PM 43.2856 -77.5600 106° East 262 302 2,500  Level Cleveland Center

Login

Don't have an account? Register now (free) for customized features, flight alerts, and more!